Patricia Anne — WDF9428 — position and weather

sailwx.info

Track history (hours):
 
Tides and Currents Weather Stations Pressure Air Temp Water Temp Dewpoint Dewpoint Depression Visibility Wind Speed Wind Dir Waves Ship Positions

Patricia Anne

Owner: Genesis Marine, LLC, Houston, TX. More information available from US FCC via Universal Licensing System and Coast Guard Vessel Documentation Center.

Last reported at 2017-Nov-19 18:00 UTC. Time now 2017-Nov-19 18:15 UTC.
Position N 30°05' W 093°20'.

Length 26 m; draft 3 m.

Type: Towing. MMSI: 367505060.

Date/timePositionNaut miles runAvg speedWind from/ knotsBaromVisibWave heightAir tempDewpointWater temp
2017-Nov-19 18:00N 30°05' W 093°20'0 0.0
2017-Nov-19 17:30N 30°05' W 093°20'0 0.0
2017-Nov-19 17:00N 30°05' W 093°20'0 0.0
2017-Nov-19 16:30N 30°05' W 093°20'0 0.0
2017-Nov-19 16:00N 30°05' W 093°20'0 0.0
2017-Nov-19 15:30N 30°05' W 093°20'0 0.0
2017-Nov-19 15:00N 30°05' W 093°20'0 0.0
2017-Nov-19 14:30N 30°05' W 093°20'0 0.0
2017-Nov-19 14:00N 30°05' W 093°20'0 0.0
2017-Nov-19 13:30N 30°05' W 093°20'0 0.0
2017-Nov-19 13:00N 30°05' W 093°20'0 0.0
2017-Nov-19 12:30N 30°05' W 093°20'0 0.1
2017-Nov-19 12:00N 30°05' W 093°20'0 0.0
2017-Nov-19 11:30N 30°05' W 093°20'0 0.0
2017-Nov-19 11:00N 30°05' W 093°20'0 1.0
2017-Nov-19 10:30N 30°05' W 093°20'1 1.3
2017-Nov-19 10:00N 30°06' W 093°20'0 0.3
2017-Nov-19 09:30N 30°06' W 093°20'1 2.4
2017-Nov-19 09:00N 30°05' W 093°20'2 3.4
2017-Nov-19 08:30N 30°04' W 093°22'2 3.2
2017-Nov-19 08:00N 30°04' W 093°24'1 2.7
2017-Nov-19 07:30N 30°04' W 093°25'2 3.4
2017-Nov-19 07:00N 30°04' W 093°27'2 4.4
2017-Nov-19 06:30N 30°04' W 093°30'2 4.4
2017-Nov-19 06:00N 30°04' W 093°32'3 4.3
2017-Nov-19 05:20N 30°04' W 093°35'75 1.6
2017-Nov-17 07:44N 29°29' W 094°52'2 6.7
2017-Nov-17 07:30N 29°30' W 094°53'3 6.6
2017-Nov-17 07:00N 29°33' W 094°55'3 6.9
2017-Nov-17 06:30N 29°36' W 094°57'3 6.7
2017-Nov-17 06:00N 29°39' W 094°58'3 6.8
2017-Nov-17 05:30N 29°42' W 095°00'3 5.8
2017-Nov-17 05:00N 29°44' W 095°03'3 4.9
2017-Nov-17 04:19N 29°47' W 095°04'1 2.3
2017-Nov-17 03:58N 29°47' W 095°04'1 2.1
2017-Nov-17 03:20N 29°46' W 095°05'1 0.2
2017-Nov-16 22:10N 29°46' W 095°05'1 0.0
2017-Nov-16 06:28N 29°46' W 095°05'2 3.6
2017-Nov-16 06:00N 29°47' W 095°04'2 0.2
2017-Nov-15 22:55N 29°46' W 095°05'3 6.0
2017-Nov-15 22:29N 29°44' W 095°03'3 5.5
2017-Nov-15 21:59N 29°42' W 095°00'3 5.4
2017-Nov-15 21:30N 29°40' W 094°59'3 6.9
2017-Nov-15 21:00N 29°37' W 094°57'3 6.4
2017-Nov-15 20:30N 29°34' W 094°55'4 7.1
2017-Nov-15 19:59N 29°31' W 094°53'70 4.3
2017-Nov-15 03:41N 30°04' W 093°42'1 5.6
2017-Nov-15 03:25N 30°04' W 093°40'2 5.2
2017-Nov-15 02:58N 30°04' W 093°37'2 4.9
2017-Nov-15 02:30N 30°04' W 093°35'3 5.2
2017-Nov-15 02:00N 30°04' W 093°32'3 5.2
2017-Nov-15 01:30N 30°04' W 093°29'3 5.2
2017-Nov-15 01:00N 30°04' W 093°26'3 5.3
2017-Nov-15 00:30N 30°04' W 093°23'2 4.8
2017-Nov-15 00:00N 30°05' W 093°20'2 4.2
2017-Nov-14 23:30N 30°07' W 093°20'1 3.0
2017-Nov-14 23:00N 30°08' W 093°19'0 0.0
2017-Nov-14 22:30N 30°08' W 093°19'0 0.0
2017-Nov-14 22:00N 30°08' W 093°19'0 0.0
2017-Nov-14 21:30N 30°08' W 093°19'0 0.0
2017-Nov-14 21:00N 30°08' W 093°19'0 0.0
2017-Nov-14 20:30N 30°08' W 093°19'0 0.0
2017-Nov-14 20:00N 30°08' W 093°19'0 0.0
2017-Nov-14 19:30N 30°08' W 093°19'0 0.0
2017-Nov-14 19:00N 30°08' W 093°19'0 0.0
2017-Nov-14 18:30N 30°08' W 093°19'0 0.0
2017-Nov-14 18:00N 30°08' W 093°19'0 0.0
2017-Nov-14 17:30N 30°08' W 093°19'0 0.0
2017-Nov-14 17:00N 30°08' W 093°19'0 0.0
2017-Nov-14 16:30N 30°08' W 093°19'0 0.0
2017-Nov-14 16:00N 30°08' W 093°19'0 0.0
2017-Nov-14 15:30N 30°08' W 093°19'0 0.0
2017-Nov-14 15:00N 30°08' W 093°19'0 0.0
2017-Nov-14 14:30N 30°08' W 093°19'0 0.0
2017-Nov-14 13:59N 30°08' W 093°19'0 0.0
2017-Nov-14 13:30N 30°08' W 093°19'0 0.0
2017-Nov-14 13:00N 30°08' W 093°19'0 0.0
2017-Nov-14 12:30N 30°08' W 093°19'3 0.1
2017-Nov-13 01:04N 30°05' W 093°20'0 0.0
2017-Nov-13 00:59N 30°05' W 093°20'0 0.0
2017-Nov-13 00:29N 30°05' W 093°20'0 0.7
2017-Nov-12 23:59N 30°05' W 093°20'0 0.0
2017-Nov-12 23:29N 30°05' W 093°20'0 0.0
2017-Nov-12 22:59N 30°05' W 093°20'0 0.2
2017-Nov-12 21:07N 30°05' W 093°20'0 0.0
2017-Nov-12 20:59N 30°05' W 093°20'0 0.0
2017-Nov-12 20:03N 30°05' W 093°20'0 0.0
2017-Nov-12 19:59N 30°05' W 093°20'0 0.0
2017-Nov-12 19:29N 30°05' W 093°20'0 0.0
2017-Nov-12 18:59N 30°05' W 093°20'0 0.0
2017-Nov-12 17:38N 30°05' W 093°20'0 0.0
2017-Nov-12 17:27N 30°05' W 093°20'0 0.0
2017-Nov-12 16:59N 30°05' W 093°20'0 0.0
2017-Nov-12 16:30N 30°05' W 093°20'0 0.0
2017-Nov-12 15:55N 30°05' W 093°20'0 0.0
2017-Nov-12 15:29N 30°05' W 093°20'0 0.0
2017-Nov-12 14:59N 30°05' W 093°20'0 0.0
2017-Nov-12 14:27N 30°05' W 093°20'0 0.0
2017-Nov-12 13:55N 30°05' W 093°20'2 0.0
2017-Nov-10 16:30N 30°06' W 093°18'0 0.0
2017-Nov-10 16:00N 30°06' W 093°18'0 0.0
2017-Nov-10 15:30N 30°06' W 093°18'0 0.8
2017-Nov-10 15:01N 30°06' W 093°19'2 3.5
2017-Nov-10 14:31N 30°05' W 093°20'0 0.9
2017-Nov-10 14:01N 30°05' W 093°20'1 1.3
2017-Nov-10 13:31N 30°06' W 093°19'1 1.6
2017-Nov-10 13:01N 30°05' W 093°20'2 3.3
2017-Nov-10 12:31N 30°04' W 093°21'1 2.7
2017-Nov-10 12:01N 30°04' W 093°23'2 3.7
2017-Nov-10 11:31N 30°04' W 093°25'2 4.1
2017-Nov-10 11:01N 30°04' W 093°27'2 4.1
2017-Nov-10 10:31N 30°04' W 093°29'2 4.2
2017-Nov-10 10:01N 30°04' W 093°32'2 4.3
2017-Nov-10 09:30N 30°04' W 093°34'2 4.6
2017-Nov-10 09:01N 30°03' W 093°37'3 4.9
2017-Nov-10 08:30N 30°04' W 093°40'3 4.8
2017-Nov-10 07:58N 30°03' W 093°43'  
Track history (hours):
 
Tides and Currents Weather Stations Pressure Air Temp Water Temp Dewpoint Dewpoint Depression Visibility Wind Speed Wind Dir Waves Ship Positions

Patricia Anne

Owner: Genesis Marine, LLC, Houston, TX. More information available from US FCC via Universal Licensing System and Coast Guard Vessel Documentation Center.

Last reported at 2017-Nov-19 18:00 UTC. Time now 2017-Nov-19 18:15 UTC.
Position N 30°05' W 093°20'.

Length 26 m; draft 3 m.

Type: Towing. MMSI: 367505060.

Date/timePositionNaut miles runAvg speedWind from/ knotsBaromVisibWave heightAir tempDewpointWater temp
2017-Nov-19 18:00N 30°05' W 093°20'0 0.0
2017-Nov-19 17:30N 30°05' W 093°20'0 0.0
2017-Nov-19 17:00N 30°05' W 093°20'0 0.0
2017-Nov-19 16:30N 30°05' W 093°20'0 0.0
2017-Nov-19 16:00N 30°05' W 093°20'0 0.0
2017-Nov-19 15:30N 30°05' W 093°20'0 0.0
2017-Nov-19 15:00N 30°05' W 093°20'0 0.0
2017-Nov-19 14:30N 30°05' W 093°20'0 0.0
2017-Nov-19 14:00N 30°05' W 093°20'0 0.0
2017-Nov-19 13:30N 30°05' W 093°20'0 0.0
2017-Nov-19 13:00N 30°05' W 093°20'0 0.0
2017-Nov-19 12:30N 30°05' W 093°20'0 0.1
2017-Nov-19 12:00N 30°05' W 093°20'0 0.0
2017-Nov-19 11:30N 30°05' W 093°20'0 0.0
2017-Nov-19 11:00N 30°05' W 093°20'0 1.0
2017-Nov-19 10:30N 30°05' W 093°20'1 1.3
2017-Nov-19 10:00N 30°06' W 093°20'0 0.3
2017-Nov-19 09:30N 30°06' W 093°20'1 2.4
2017-Nov-19 09:00N 30°05' W 093°20'2 3.4
2017-Nov-19 08:30N 30°04' W 093°22'2 3.2
2017-Nov-19 08:00N 30°04' W 093°24'1 2.7
2017-Nov-19 07:30N 30°04' W 093°25'2 3.4
2017-Nov-19 07:00N 30°04' W 093°27'2 4.4
2017-Nov-19 06:30N 30°04' W 093°30'2 4.4
2017-Nov-19 06:00N 30°04' W 093°32'3 4.3
2017-Nov-19 05:20N 30°04' W 093°35'75 1.6
2017-Nov-17 07:44N 29°29' W 094°52'2 6.7
2017-Nov-17 07:30N 29°30' W 094°53'3 6.6
2017-Nov-17 07:00N 29°33' W 094°55'3 6.9
2017-Nov-17 06:30N 29°36' W 094°57'3 6.7
2017-Nov-17 06:00N 29°39' W 094°58'3 6.8
2017-Nov-17 05:30N 29°42' W 095°00'3 5.8
2017-Nov-17 05:00N 29°44' W 095°03'3 4.9
2017-Nov-17 04:19N 29°47' W 095°04'1 2.3
2017-Nov-17 03:58N 29°47' W 095°04'1 2.1
2017-Nov-17 03:20N 29°46' W 095°05'1 0.2
2017-Nov-16 22:10N 29°46' W 095°05'1 0.0
2017-Nov-16 06:28N 29°46' W 095°05'2 3.6
2017-Nov-16 06:00N 29°47' W 095°04'2 0.2
2017-Nov-15 22:55N 29°46' W 095°05'3 6.0
2017-Nov-15 22:29N 29°44' W 095°03'3 5.5
2017-Nov-15 21:59N 29°42' W 095°00'3 5.4
2017-Nov-15 21:30N 29°40' W 094°59'3 6.9
2017-Nov-15 21:00N 29°37' W 094°57'3 6.4
2017-Nov-15 20:30N 29°34' W 094°55'4 7.1
2017-Nov-15 19:59N 29°31' W 094°53'70 4.3
2017-Nov-15 03:41N 30°04' W 093°42'1 5.6
2017-Nov-15 03:25N 30°04' W 093°40'2 5.2
2017-Nov-15 02:58N 30°04' W 093°37'2 4.9
2017-Nov-15 02:30N 30°04' W 093°35'3 5.2
2017-Nov-15 02:00N 30°04' W 093°32'3 5.2
2017-Nov-15 01:30N 30°04' W 093°29'3 5.2
2017-Nov-15 01:00N 30°04' W 093°26'3 5.3
2017-Nov-15 00:30N 30°04' W 093°23'2 4.8
2017-Nov-15 00:00N 30°05' W 093°20'2 4.2
2017-Nov-14 23:30N 30°07' W 093°20'1 3.0
2017-Nov-14 23:00N 30°08' W 093°19'0 0.0
2017-Nov-14 22:30N 30°08' W 093°19'0 0.0
2017-Nov-14 22:00N 30°08' W 093°19'0 0.0
2017-Nov-14 21:30N 30°08' W 093°19'0 0.0
2017-Nov-14 21:00N 30°08' W 093°19'0 0.0
2017-Nov-14 20:30N 30°08' W 093°19'0 0.0
2017-Nov-14 20:00N 30°08' W 093°19'0 0.0
2017-Nov-14 19:30N 30°08' W 093°19'0 0.0
2017-Nov-14 19:00N 30°08' W 093°19'0 0.0
2017-Nov-14 18:30N 30°08' W 093°19'0 0.0
2017-Nov-14 18:00N 30°08' W 093°19'0 0.0
2017-Nov-14 17:30N 30°08' W 093°19'0 0.0
2017-Nov-14 17:00N 30°08' W 093°19'0 0.0
2017-Nov-14 16:30N 30°08' W 093°19'0 0.0
2017-Nov-14 16:00N 30°08' W 093°19'0 0.0
2017-Nov-14 15:30N 30°08' W 093°19'0 0.0
2017-Nov-14 15:00N 30°08' W 093°19'0 0.0
2017-Nov-14 14:30N 30°08' W 093°19'0 0.0
2017-Nov-14 13:59N 30°08' W 093°19'0 0.0
2017-Nov-14 13:30N 30°08' W 093°19'0 0.0
2017-Nov-14 13:00N 30°08' W 093°19'0 0.0
2017-Nov-14 12:30N 30°08' W 093°19'3 0.1
2017-Nov-13 01:04N 30°05' W 093°20'0 0.0
2017-Nov-13 00:59N 30°05' W 093°20'0 0.0
2017-Nov-13 00:29N 30°05' W 093°20'0 0.7
2017-Nov-12 23:59N 30°05' W 093°20'0 0.0
2017-Nov-12 23:29N 30°05' W 093°20'0 0.0
2017-Nov-12 22:59N 30°05' W 093°20'0 0.2
2017-Nov-12 21:07N 30°05' W 093°20'0 0.0
2017-Nov-12 20:59N 30°05' W 093°20'0 0.0
2017-Nov-12 20:03N 30°05' W 093°20'0 0.0
2017-Nov-12 19:59N 30°05' W 093°20'0 0.0
2017-Nov-12 19:29N 30°05' W 093°20'0 0.0
2017-Nov-12 18:59N 30°05' W 093°20'0 0.0
2017-Nov-12 17:38N 30°05' W 093°20'0 0.0
2017-Nov-12 17:27N 30°05' W 093°20'0 0.0
2017-Nov-12 16:59N 30°05' W 093°20'0 0.0
2017-Nov-12 16:30N 30°05' W 093°20'0 0.0
2017-Nov-12 15:55N 30°05' W 093°20'0 0.0
2017-Nov-12 15:29N 30°05' W 093°20'0 0.0
2017-Nov-12 14:59N 30°05' W 093°20'0 0.0
2017-Nov-12 14:27N 30°05' W 093°20'0 0.0
2017-Nov-12 13:55N 30°05' W 093°20'2 0.0
2017-Nov-10 16:30N 30°06' W 093°18'0 0.0
2017-Nov-10 16:00N 30°06' W 093°18'0 0.0
2017-Nov-10 15:30N 30°06' W 093°18'0 0.8
2017-Nov-10 15:01N 30°06' W 093°19'2 3.5
2017-Nov-10 14:31N 30°05' W 093°20'0 0.9
2017-Nov-10 14:01N 30°05' W 093°20'1 1.3
2017-Nov-10 13:31N 30°06' W 093°19'1 1.6
2017-Nov-10 13:01N 30°05' W 093°20'2 3.3
2017-Nov-10 12:31N 30°04' W 093°21'1 2.7
2017-Nov-10 12:01N 30°04' W 093°23'2 3.7
2017-Nov-10 11:31N 30°04' W 093°25'2 4.1
2017-Nov-10 11:01N 30°04' W 093°27'2 4.1
2017-Nov-10 10:31N 30°04' W 093°29'2 4.2
2017-Nov-10 10:01N 30°04' W 093°32'2 4.3
2017-Nov-10 09:30N 30°04' W 093°34'2 4.6
2017-Nov-10 09:01N 30°03' W 093°37'3 4.9
2017-Nov-10 08:30N 30°04' W 093°40'3 4.8
2017-Nov-10 07:58N 30°03' W 093°43'  

Dump ship's entire track history